sensor_id;sensor_type;location;lat;lon;timestamp;P1;durP1;ratioP1;P2;durP2;ratioP2
66380;SDS011;53177;52.648;1.214;2022-11-18T00:02:05;18.57;;;6.60;;
66380;SDS011;53177;52.648;1.214;2022-11-18T00:04:31;13.70;;;5.40;;
66380;SDS011;53177;52.648;1.214;2022-11-18T00:06:56;12.70;;;5.43;;
66380;SDS011;53177;52.648;1.214;2022-11-18T00:09:22;11.60;;;5.38;;
66380;SDS011;53177;52.648;1.214;2022-11-18T00:11:47;14.90;;;4.87;;
66380;SDS011;53177;52.648;1.214;2022-11-18T00:14:31;12.43;;;4.97;;
66380;SDS011;53177;52.648;1.214;2022-11-18T00:16:57;16.80;;;6.80;;
66380;SDS011;53177;52.648;1.214;2022-11-18T00:19:32;20.60;;;6.20;;
66380;SDS011;53177;52.648;1.214;2022-11-18T00:21:59;14.65;;;5.40;;
66380;SDS011;53177;52.648;1.214;2022-11-18T00:24:25;14.32;;;5.60;;
66380;SDS011;53177;52.648;1.214;2022-11-18T00:26:51;9.00;;;4.20;;
66380;SDS011;53177;52.648;1.214;2022-11-18T00:29:17;11.10;;;4.43;;
66380;SDS011;53177;52.648;1.214;2022-11-18T00:31:43;11.48;;;5.05;;
66380;SDS011;53177;52.648;1.214;2022-11-18T00:34:10;10.95;;;4.50;;
66380;SDS011;53177;52.648;1.214;2022-11-18T00:36:37;11.07;;;4.73;;
66380;SDS011;53177;52.648;1.214;2022-11-18T00:39:03;15.98;;;5.93;;
66380;SDS011;53177;52.648;1.214;2022-11-18T00:41:28;14.25;;;5.47;;
66380;SDS011;53177;52.648;1.214;2022-11-18T00:44:14;15.27;;;5.93;;
66380;SDS011;53177;52.648;1.214;2022-11-18T00:46:39;15.07;;;6.03;;
66380;SDS011;53177;52.648;1.214;2022-11-18T00:49:06;18.30;;;7.60;;
66380;SDS011;53177;52.648;1.214;2022-11-18T00:51:31;18.53;;;7.03;;
66380;SDS011;53177;52.648;1.214;2022-11-18T00:53:56;19.93;;;7.33;;
66380;SDS011;53177;52.648;1.214;2022-11-18T00:56:22;21.93;;;7.77;;
66380;SDS011;53177;52.648;1.214;2022-11-18T00:58:47;22.05;;;7.63;;
66380;SDS011;53177;52.648;1.214;2022-11-18T01:01:13;17.63;;;7.80;;
66380;SDS011;53177;52.648;1.214;2022-11-18T01:03:38;21.83;;;8.43;;
66380;SDS011;53177;52.648;1.214;2022-11-18T01:06:03;16.37;;;6.50;;
66380;SDS011;53177;52.648;1.214;2022-11-18T01:08:29;17.63;;;6.97;;
66380;SDS011;53177;52.648;1.214;2022-11-18T01:10:54;13.07;;;5.57;;
66380;SDS011;53177;52.648;1.214;2022-11-18T01:13:40;17.60;;;6.53;;
66380;SDS011;53177;52.648;1.214;2022-11-18T01:16:05;12.73;;;5.63;;
66380;SDS011;53177;52.648;1.214;2022-11-18T01:18:31;17.90;;;6.72;;
66380;SDS011;53177;52.648;1.214;2022-11-18T01:20:59;14.80;;;6.27;;
66380;SDS011;53177;52.648;1.214;2022-11-18T01:23:26;20.25;;;7.20;;
66380;SDS011;53177;52.648;1.214;2022-11-18T01:25:51;13.20;;;5.40;;
66380;SDS011;53177;52.648;1.214;2022-11-18T01:28:17;11.40;;;4.90;;
66380;SDS011;53177;52.648;1.214;2022-11-18T01:30:43;13.80;;;5.70;;
66380;SDS011;53177;52.648;1.214;2022-11-18T01:33:09;13.43;;;6.22;;
66380;SDS011;53177;52.648;1.214;2022-11-18T01:35:39;13.60;;;5.90;;
66380;SDS011;53177;52.648;1.214;2022-11-18T01:38:07;14.35;;;6.20;;
66380;SDS011;53177;52.648;1.214;2022-11-18T01:40:34;19.38;;;9.48;;
66380;SDS011;53177;52.648;1.214;2022-11-18T01:43:00;15.77;;;5.80;;
66380;SDS011;53177;52.648;1.214;2022-11-18T01:48:01;16.13;;;6.90;;
66380;SDS011;53177;52.648;1.214;2022-11-18T01:50:34;19.83;;;7.97;;
66380;SDS011;53177;52.648;1.214;2022-11-18T01:53:04;13.20;;;6.13;;
66380;SDS011;53177;52.648;1.214;2022-11-18T01:55:36;14.13;;;6.10;;
66380;SDS011;53177;52.648;1.214;2022-11-18T01:58:08;12.65;;;5.25;;
66380;SDS011;53177;52.648;1.214;2022-11-18T02:00:36;13.07;;;5.60;;
66380;SDS011;53177;52.648;1.214;2022-11-18T02:03:03;13.15;;;5.20;;
66380;SDS011;53177;52.648;1.214;2022-11-18T02:05:29;11.80;;;4.97;;
66380;SDS011;53177;52.648;1.214;2022-11-18T02:07:57;16.60;;;5.88;;
66380;SDS011;53177;52.648;1.214;2022-11-18T02:10:25;10.95;;;5.00;;
66380;SDS011;53177;52.648;1.214;2022-11-18T02:12:52;11.45;;;5.00;;
66380;SDS011;53177;52.648;1.214;2022-11-18T02:15:20;14.07;;;5.53;;
66380;SDS011;53177;52.648;1.214;2022-11-18T02:18:27;10.75;;;4.30;;
66380;SDS011;53177;52.648;1.214;2022-11-18T02:20:50;15.98;;;5.82;;
66380;SDS011;53177;52.648;1.214;2022-11-18T02:23:42;13.50;;;4.85;;
66380;SDS011;53177;52.648;1.214;2022-11-18T02:26:35;15.15;;;4.60;;
66380;SDS011;53177;52.648;1.214;2022-11-18T02:29:14;11.02;;;4.53;;
66380;SDS011;53177;52.648;1.214;2022-11-18T02:37:33;12.90;;;4.93;;
66380;SDS011;53177;52.648;1.214;2022-11-18T02:40:14;12.90;;;4.28;;
66380;SDS011;53177;52.648;1.214;2022-11-18T02:42:47;12.25;;;4.57;;
66380;SDS011;53177;52.648;1.214;2022-11-18T02:45:17;10.52;;;3.67;;
66380;SDS011;53177;52.648;1.214;2022-11-18T02:47:44;11.73;;;3.75;;
66380;SDS011;53177;52.648;1.214;2022-11-18T02:50:14;9.90;;;4.10;;
66380;SDS011;53177;52.648;1.214;2022-11-18T02:52:45;14.77;;;4.47;;
66380;SDS011;53177;52.648;1.214;2022-11-18T02:55:14;21.77;;;5.10;;
66380;SDS011;53177;52.648;1.214;2022-11-18T02:57:42;11.65;;;4.07;;
66380;SDS011;53177;52.648;1.214;2022-11-18T03:00:09;15.88;;;4.78;;
66380;SDS011;53177;52.648;1.214;2022-11-18T03:02:39;12.25;;;3.95;;
66380;SDS011;53177;52.648;1.214;2022-11-18T03:05:12;10.75;;;4.20;;
66380;SDS011;53177;52.648;1.214;2022-11-18T03:07:45;10.38;;;3.50;;
66380;SDS011;53177;52.648;1.214;2022-11-18T03:10:15;8.23;;;3.10;;
66380;SDS011;53177;52.648;1.214;2022-11-18T03:12:44;12.88;;;3.50;;
66380;SDS011;53177;52.648;1.214;2022-11-18T03:18:17;8.45;;;2.80;;
66380;SDS011;53177;52.648;1.214;2022-11-18T03:20:57;13.88;;;3.53;;
66380;SDS011;53177;52.648;1.214;2022-11-18T03:23:35;11.53;;;3.80;;
66380;SDS011;53177;52.648;1.214;2022-11-18T03:26:06;9.63;;;2.83;;
66380;SDS011;53177;52.648;1.214;2022-11-18T03:31:48;12.63;;;3.17;;
66380;SDS011;53177;52.648;1.214;2022-11-18T03:34:18;7.55;;;2.50;;
66380;SDS011;53177;52.648;1.214;2022-11-18T03:36:52;11.63;;;3.30;;
66380;SDS011;53177;52.648;1.214;2022-11-18T03:39:21;10.65;;;3.13;;
66380;SDS011;53177;52.648;1.214;2022-11-18T03:41:51;9.88;;;2.40;;
66380;SDS011;53177;52.648;1.214;2022-11-18T03:44:20;7.90;;;2.47;;
66380;SDS011;53177;52.648;1.214;2022-11-18T03:46:58;9.98;;;2.78;;
66380;SDS011;53177;52.648;1.214;2022-11-18T03:49:29;10.07;;;3.08;;
66380;SDS011;53177;52.648;1.214;2022-11-18T03:52:03;10.20;;;2.40;;
66380;SDS011;53177;52.648;1.214;2022-11-18T03:54:34;9.73;;;2.90;;
66380;SDS011;53177;52.648;1.214;2022-11-18T03:57:05;13.43;;;3.70;;
66380;SDS011;53177;52.648;1.214;2022-11-18T03:59:37;9.80;;;2.80;;
66380;SDS011;53177;52.648;1.214;2022-11-18T04:02:12;12.13;;;4.20;;
66380;SDS011;53177;52.648;1.214;2022-11-18T04:04:41;8.65;;;3.20;;
66380;SDS011;53177;52.648;1.214;2022-11-18T04:07:16;9.63;;;2.80;;
66380;SDS011;53177;52.648;1.214;2022-11-18T04:09:55;8.40;;;2.80;;
66380;SDS011;53177;52.648;1.214;2022-11-18T04:12:24;7.82;;;2.30;;
66380;SDS011;53177;52.648;1.214;2022-11-18T04:14:54;7.43;;;3.30;;
66380;SDS011;53177;52.648;1.214;2022-11-18T04:17:20;13.50;;;4.07;;
66380;SDS011;53177;52.648;1.214;2022-11-18T04:19:48;11.85;;;3.92;;
66380;SDS011;53177;52.648;1.214;2022-11-18T04:22:14;9.13;;;2.93;;
66380;SDS011;53177;52.648;1.214;2022-11-18T04:24:39;11.27;;;3.08;;
66380;SDS011;53177;52.648;1.214;2022-11-18T04:27:05;10.77;;;3.23;;
66380;SDS011;53177;52.648;1.214;2022-11-18T04:29:32;7.65;;;2.40;;
66380;SDS011;53177;52.648;1.214;2022-11-18T04:31:58;8.75;;;2.63;;
66380;SDS011;53177;52.648;1.214;2022-11-18T04:34:24;11.85;;;2.90;;
66380;SDS011;53177;52.648;1.214;2022-11-18T04:36:49;9.73;;;3.40;;
66380;SDS011;53177;52.648;1.214;2022-11-18T04:39:15;8.73;;;3.30;;
66380;SDS011;53177;52.648;1.214;2022-11-18T04:41:42;19.75;;;7.60;;
66380;SDS011;53177;52.648;1.214;2022-11-18T04:46:53;12.88;;;3.63;;
66380;SDS011;53177;52.648;1.214;2022-11-18T04:49:19;11.13;;;3.40;;
66380;SDS011;53177;52.648;1.214;2022-11-18T04:51:45;6.60;;;2.60;;
66380;SDS011;53177;52.648;1.214;2022-11-18T04:54:11;9.82;;;3.10;;
66380;SDS011;53177;52.648;1.214;2022-11-18T04:56:37;14.55;;;4.60;;
66380;SDS011;53177;52.648;1.214;2022-11-18T04:59:03;7.47;;;3.08;;
66380;SDS011;53177;52.648;1.214;2022-11-18T05:01:29;11.33;;;3.77;;
66380;SDS011;53177;52.648;1.214;2022-11-18T05:03:55;10.82;;;3.05;;
66380;SDS011;53177;52.648;1.214;2022-11-18T05:06:21;9.93;;;3.45;;
66380;SDS011;53177;52.648;1.214;2022-11-18T05:08:46;11.20;;;3.47;;
66380;SDS011;53177;52.648;1.214;2022-11-18T05:11:12;8.68;;;3.03;;
66380;SDS011;53177;52.648;1.214;2022-11-18T05:13:56;8.33;;;2.73;;
66380;SDS011;53177;52.648;1.214;2022-11-18T05:16:21;7.18;;;3.17;;
66380;SDS011;53177;52.648;1.214;2022-11-18T05:18:47;9.27;;;2.90;;
66380;SDS011;53177;52.648;1.214;2022-11-18T05:21:12;12.17;;;3.90;;
66380;SDS011;53177;52.648;1.214;2022-11-18T05:23:38;12.63;;;3.53;;
66380;SDS011;53177;52.648;1.214;2022-11-18T05:26:07;8.63;;;2.63;;
66380;SDS011;53177;52.648;1.214;2022-11-18T05:28:34;6.88;;;2.50;;
66380;SDS011;53177;52.648;1.214;2022-11-18T05:31:05;10.23;;;3.30;;
66380;SDS011;53177;52.648;1.214;2022-11-18T05:33:36;11.00;;;3.08;;
66380;SDS011;53177;52.648;1.214;2022-11-18T05:36:04;10.43;;;2.87;;
66380;SDS011;53177;52.648;1.214;2022-11-18T05:38:31;9.38;;;3.78;;
66380;SDS011;53177;52.648;1.214;2022-11-18T05:40:57;10.40;;;3.25;;
66380;SDS011;53177;52.648;1.214;2022-11-18T05:43:23;12.00;;;3.73;;
66380;SDS011;53177;52.648;1.214;2022-11-18T05:45:49;12.63;;;4.00;;
66380;SDS011;53177;52.648;1.214;2022-11-18T05:48:15;11.95;;;3.47;;
66380;SDS011;53177;52.648;1.214;2022-11-18T05:50:44;13.32;;;3.50;;
66380;SDS011;53177;52.648;1.214;2022-11-18T05:53:11;11.05;;;2.92;;
66380;SDS011;53177;52.648;1.214;2022-11-18T05:55:49;11.85;;;3.58;;
66380;SDS011;53177;52.648;1.214;2022-11-18T05:58:15;13.50;;;3.73;;
66380;SDS011;53177;52.648;1.214;2022-11-18T06:00:41;11.57;;;3.92;;
66380;SDS011;53177;52.648;1.214;2022-11-18T06:03:11;8.55;;;2.90;;
66380;SDS011;53177;52.648;1.214;2022-11-18T06:05:43;9.70;;;3.27;;
66380;SDS011;53177;52.648;1.214;2022-11-18T06:08:09;10.10;;;2.92;;
66380;SDS011;53177;52.648;1.214;2022-11-18T06:10:37;12.13;;;3.35;;
66380;SDS011;53177;52.648;1.214;2022-11-18T06:13:07;10.80;;;3.08;;
66380;SDS011;53177;52.648;1.214;2022-11-18T06:15:39;11.65;;;3.35;;
66380;SDS011;53177;52.648;1.214;2022-11-18T06:18:16;12.10;;;4.07;;
66380;SDS011;53177;52.648;1.214;2022-11-18T06:20:45;7.80;;;2.42;;
66380;SDS011;53177;52.648;1.214;2022-11-18T06:23:11;11.35;;;2.97;;
66380;SDS011;53177;52.648;1.214;2022-11-18T06:25:37;11.10;;;3.30;;
66380;SDS011;53177;52.648;1.214;2022-11-18T06:28:04;12.30;;;3.40;;
66380;SDS011;53177;52.648;1.214;2022-11-18T06:30:29;10.20;;;2.87;;
66380;SDS011;53177;52.648;1.214;2022-11-18T06:32:55;6.85;;;2.20;;
66380;SDS011;53177;52.648;1.214;2022-11-18T06:35:20;6.77;;;1.90;;
66380;SDS011;53177;52.648;1.214;2022-11-18T06:37:46;9.23;;;2.93;;
66380;SDS011;53177;52.648;1.214;2022-11-18T06:40:12;7.22;;;2.10;;
66380;SDS011;53177;52.648;1.214;2022-11-18T06:42:38;11.93;;;3.67;;
66380;SDS011;53177;52.648;1.214;2022-11-18T06:45:22;12.95;;;4.13;;
66380;SDS011;53177;52.648;1.214;2022-11-18T06:47:47;7.07;;;2.80;;
66380;SDS011;53177;52.648;1.214;2022-11-18T06:50:13;7.53;;;2.47;;
66380;SDS011;53177;52.648;1.214;2022-11-18T06:52:39;10.85;;;3.40;;
66380;SDS011;53177;52.648;1.214;2022-11-18T06:55:06;5.95;;;2.10;;
66380;SDS011;53177;52.648;1.214;2022-11-18T06:57:33;10.27;;;2.78;;
66380;SDS011;53177;52.648;1.214;2022-11-18T07:00:03;14.30;;;2.92;;
66380;SDS011;53177;52.648;1.214;2022-11-18T07:02:30;9.07;;;2.45;;
66380;SDS011;53177;52.648;1.214;2022-11-18T07:04:55;11.85;;;3.22;;
66380;SDS011;53177;52.648;1.214;2022-11-18T07:07:21;9.67;;;2.80;;
66380;SDS011;53177;52.648;1.214;2022-11-18T07:09:48;9.45;;;2.80;;
66380;SDS011;53177;52.648;1.214;2022-11-18T07:12:13;8.47;;;2.10;;
66380;SDS011;53177;52.648;1.214;2022-11-18T07:14:38;7.67;;;2.10;;
66380;SDS011;53177;52.648;1.214;2022-11-18T07:17:04;12.70;;;3.60;;
66380;SDS011;53177;52.648;1.214;2022-11-18T07:19:30;7.20;;;2.20;;
66380;SDS011;53177;52.648;1.214;2022-11-18T07:21:55;10.77;;;2.70;;
66380;SDS011;53177;52.648;1.214;2022-11-18T07:24:21;8.73;;;1.98;;
66380;SDS011;53177;52.648;1.214;2022-11-18T07:26:46;9.43;;;2.73;;
66380;SDS011;53177;52.648;1.214;2022-11-18T07:29:13;14.67;;;4.40;;
66380;SDS011;53177;52.648;1.214;2022-11-18T07:31:40;11.60;;;3.67;;
66380;SDS011;53177;52.648;1.214;2022-11-18T07:34:06;10.23;;;2.77;;
66380;SDS011;53177;52.648;1.214;2022-11-18T07:36:32;11.57;;;3.65;;
66380;SDS011;53177;52.648;1.214;2022-11-18T07:38:58;8.93;;;2.87;;
66380;SDS011;53177;52.648;1.214;2022-11-18T07:41:25;11.63;;;3.10;;
66380;SDS011;53177;52.648;1.214;2022-11-18T07:43:55;10.90;;;2.70;;
66380;SDS011;53177;52.648;1.214;2022-11-18T07:48:57;9.98;;;2.75;;
66380;SDS011;53177;52.648;1.214;2022-11-18T07:51:25;12.15;;;3.35;;
66380;SDS011;53177;52.648;1.214;2022-11-18T07:53:52;8.07;;;2.40;;
66380;SDS011;53177;52.648;1.214;2022-11-18T07:56:18;6.60;;;2.17;;
66380;SDS011;53177;52.648;1.214;2022-11-18T07:58:44;8.20;;;2.60;;
66380;SDS011;53177;52.648;1.214;2022-11-18T08:01:11;8.03;;;2.13;;
66380;SDS011;53177;52.648;1.214;2022-11-18T08:03:42;9.05;;;2.65;;
66380;SDS011;53177;52.648;1.214;2022-11-18T08:06:08;8.45;;;1.90;;
66380;SDS011;53177;52.648;1.214;2022-11-18T08:08:35;10.07;;;2.50;;
66380;SDS011;53177;52.648;1.214;2022-11-18T08:11:08;8.23;;;2.30;;
66380;SDS011;53177;52.648;1.214;2022-11-18T08:13:35;7.20;;;3.45;;
66380;SDS011;53177;52.648;1.214;2022-11-18T08:16:01;10.77;;;3.20;;
66380;SDS011;53177;52.648;1.214;2022-11-18T08:18:28;9.77;;;3.28;;
66380;SDS011;53177;52.648;1.214;2022-11-18T08:20:54;8.27;;;2.65;;
66380;SDS011;53177;52.648;1.214;2022-11-18T08:23:20;7.90;;;2.10;;
66380;SDS011;53177;52.648;1.214;2022-11-18T08:25:45;9.57;;;2.43;;
66380;SDS011;53177;52.648;1.214;2022-11-18T08:28:12;6.82;;;2.20;;
66380;SDS011;53177;52.648;1.214;2022-11-18T08:30:38;8.27;;;2.65;;
66380;SDS011;53177;52.648;1.214;2022-11-18T08:33:04;8.13;;;2.30;;
66380;SDS011;53177;52.648;1.214;2022-11-18T08:35:30;9.27;;;2.05;;
66380;SDS011;53177;52.648;1.214;2022-11-18T08:37:56;9.13;;;3.00;;
66380;SDS011;53177;52.648;1.214;2022-11-18T08:40:23;7.93;;;2.10;;
66380;SDS011;53177;52.648;1.214;2022-11-18T08:42:49;10.93;;;2.83;;
66380;SDS011;53177;52.648;1.214;2022-11-18T08:45:14;7.67;;;2.57;;
66380;SDS011;53177;52.648;1.214;2022-11-18T08:47:40;8.32;;;2.30;;
66380;SDS011;53177;52.648;1.214;2022-11-18T08:50:07;9.47;;;2.67;;
66380;SDS011;53177;52.648;1.214;2022-11-18T08:52:33;10.80;;;3.33;;
66380;SDS011;53177;52.648;1.214;2022-11-18T08:54:59;9.73;;;2.70;;
66380;SDS011;53177;52.648;1.214;2022-11-18T08:57:24;9.40;;;2.27;;
66380;SDS011;53177;52.648;1.214;2022-11-18T08:59:50;7.37;;;1.90;;
66380;SDS011;53177;52.648;1.214;2022-11-18T09:02:17;8.60;;;2.20;;
66380;SDS011;53177;52.648;1.214;2022-11-18T09:04:47;7.32;;;2.17;;
66380;SDS011;53177;52.648;1.214;2022-11-18T09:07:14;11.27;;;2.65;;
66380;SDS011;53177;52.648;1.214;2022-11-18T09:09:39;8.50;;;2.30;;
66380;SDS011;53177;52.648;1.214;2022-11-18T09:12:05;10.23;;;2.50;;
66380;SDS011;53177;52.648;1.214;2022-11-18T09:14:31;7.33;;;2.00;;
66380;SDS011;53177;52.648;1.214;2022-11-18T09:16:56;8.90;;;1.92;;
66380;SDS011;53177;52.648;1.214;2022-11-18T09:19:22;8.23;;;1.93;;
66380;SDS011;53177;52.648;1.214;2022-11-18T09:21:47;7.65;;;2.00;;
66380;SDS011;53177;52.648;1.214;2022-11-18T09:24:13;9.40;;;2.72;;
66380;SDS011;53177;52.648;1.214;2022-11-18T09:26:39;7.82;;;2.58;;
66380;SDS011;53177;52.648;1.214;2022-11-18T09:29:05;7.67;;;1.73;;
66380;SDS011;53177;52.648;1.214;2022-11-18T09:31:30;7.30;;;2.07;;
66380;SDS011;53177;52.648;1.214;2022-11-18T09:33:57;8.00;;;1.92;;
66380;SDS011;53177;52.648;1.214;2022-11-18T09:36:24;9.00;;;2.78;;
66380;SDS011;53177;52.648;1.214;2022-11-18T09:38:49;14.02;;;3.97;;
66380;SDS011;53177;52.648;1.214;2022-11-18T09:49:36;10.25;;;2.78;;
66380;SDS011;53177;52.648;1.214;2022-11-18T09:52:09;15.98;;;4.28;;
66380;SDS011;53177;52.648;1.214;2022-11-18T09:54:42;8.10;;;3.47;;
66380;SDS011;53177;52.648;1.214;2022-11-18T09:57:10;6.57;;;1.90;;
66380;SDS011;53177;52.648;1.214;2022-11-18T09:59:39;6.20;;;1.92;;
66380;SDS011;53177;52.648;1.214;2022-11-18T10:02:47;6.50;;;1.90;;
66380;SDS011;53177;52.648;1.214;2022-11-18T10:05:18;9.82;;;3.20;;
66380;SDS011;53177;52.648;1.214;2022-11-18T10:07:58;16.35;;;4.82;;
66380;SDS011;53177;52.648;1.214;2022-11-18T10:10:55;11.38;;;3.38;;
66380;SDS011;53177;52.648;1.214;2022-11-18T10:13:37;11.83;;;3.40;;
66380;SDS011;53177;52.648;1.214;2022-11-18T10:27:34;7.67;;;1.80;;
66380;SDS011;53177;52.648;1.214;2022-11-18T10:30:22;7.85;;;2.15;;
66380;SDS011;53177;52.648;1.214;2022-11-18T10:32:57;10.20;;;2.15;;
66380;SDS011;53177;52.648;1.214;2022-11-18T10:35:28;6.97;;;1.55;;
66380;SDS011;53177;52.648;1.214;2022-11-18T10:38:00;11.90;;;2.88;;
66380;SDS011;53177;52.648;1.214;2022-11-18T10:40:40;9.30;;;2.63;;
66380;SDS011;53177;52.648;1.214;2022-11-18T10:43:10;8.75;;;2.45;;
66380;SDS011;53177;52.648;1.214;2022-11-18T10:45:37;7.32;;;2.30;;
66380;SDS011;53177;52.648;1.214;2022-11-18T10:48:08;7.82;;;2.20;;
66380;SDS011;53177;52.648;1.214;2022-11-18T10:50:40;6.68;;;2.00;;
66380;SDS011;53177;52.648;1.214;2022-11-18T10:56:00;9.80;;;2.40;;
66380;SDS011;53177;52.648;1.214;2022-11-18T10:58:30;6.03;;;1.80;;
66380;SDS011;53177;52.648;1.214;2022-11-18T11:01:14;6.85;;;1.70;;
66380;SDS011;53177;52.648;1.214;2022-11-18T11:03:51;5.70;;;1.48;;
66380;SDS011;53177;52.648;1.214;2022-11-18T11:08:53;5.53;;;1.50;;
66380;SDS011;53177;52.648;1.214;2022-11-18T11:11:22;6.82;;;2.00;;
66380;SDS011;53177;52.648;1.214;2022-11-18T11:14:01;4.90;;;1.55;;
66380;SDS011;53177;52.648;1.214;2022-11-18T11:16:31;5.97;;;1.50;;
66380;SDS011;53177;52.648;1.214;2022-11-18T11:19:02;6.18;;;1.30;;
66380;SDS011;53177;52.648;1.214;2022-11-18T11:21:29;5.57;;;1.60;;
66380;SDS011;53177;52.648;1.214;2022-11-18T11:23:55;6.32;;;1.75;;
66380;SDS011;53177;52.648;1.214;2022-11-18T11:26:33;8.00;;;1.53;;
66380;SDS011;53177;52.648;1.214;2022-11-18T11:37:18;6.57;;;1.70;;
66380;SDS011;53177;52.648;1.214;2022-11-18T11:47:26;8.18;;;2.10;;
66380;SDS011;53177;52.648;1.214;2022-11-18T11:50:29;6.78;;;2.33;;
66380;SDS011;53177;52.648;1.214;2022-11-18T11:56:11;6.57;;;1.80;;
66380;SDS011;53177;52.648;1.214;2022-11-18T12:06:31;8.18;;;2.60;;
66380;SDS011;53177;52.648;1.214;2022-11-18T12:09:15;7.30;;;2.20;;
66380;SDS011;53177;52.648;1.214;2022-11-18T12:11:52;5.50;;;1.52;;
66380;SDS011;53177;52.648;1.214;2022-11-18T12:14:31;5.93;;;1.73;;
66380;SDS011;53177;52.648;1.214;2022-11-18T12:19:46;4.57;;;1.50;;
66380;SDS011;53177;52.648;1.214;2022-11-18T12:22:11;6.72;;;1.80;;
66380;SDS011;53177;52.648;1.214;2022-11-18T12:24:38;14.75;;;3.85;;
66380;SDS011;53177;52.648;1.214;2022-11-18T12:29:55;6.32;;;1.70;;
66380;SDS011;53177;52.648;1.214;2022-11-18T12:34:59;8.73;;;2.35;;
66380;SDS011;53177;52.648;1.214;2022-11-18T12:39:59;5.35;;;2.10;;
66380;SDS011;53177;52.648;1.214;2022-11-18T12:50:51;5.00;;;1.50;;
66380;SDS011;53177;52.648;1.214;2022-11-18T12:58:45;4.70;;;1.60;;
66380;SDS011;53177;52.648;1.214;2022-11-18T13:01:12;4.22;;;1.50;;
66380;SDS011;53177;52.648;1.214;2022-11-18T13:03:41;5.20;;;1.80;;
66380;SDS011;53177;52.648;1.214;2022-11-18T13:06:11;4.90;;;1.80;;
66380;SDS011;53177;52.648;1.214;2022-11-18T13:08:52;4.97;;;1.60;;
66380;SDS011;53177;52.648;1.214;2022-11-18T13:11:22;4.75;;;1.60;;
66380;SDS011;53177;52.648;1.214;2022-11-18T13:14:17;4.40;;;1.50;;
66380;SDS011;53177;52.648;1.214;2022-11-18T13:20:32;5.22;;;1.73;;
66380;SDS011;53177;52.648;1.214;2022-11-18T13:23:01;5.47;;;1.73;;
66380;SDS011;53177;52.648;1.214;2022-11-18T13:26:11;7.40;;;1.80;;
66380;SDS011;53177;52.648;1.214;2022-11-18T13:34:18;6.88;;;1.75;;
66380;SDS011;53177;52.648;1.214;2022-11-18T13:36:48;6.45;;;1.65;;
66380;SDS011;53177;52.648;1.214;2022-11-18T13:39:19;7.10;;;1.85;;
66380;SDS011;53177;52.648;1.214;2022-11-18T13:42:02;8.15;;;2.33;;
66380;SDS011;53177;52.648;1.214;2022-11-18T13:44:33;7.17;;;1.90;;
66380;SDS011;53177;52.648;1.214;2022-11-18T13:49:34;8.50;;;2.50;;
66380;SDS011;53177;52.648;1.214;2022-11-18T13:52:08;7.07;;;1.92;;
66380;SDS011;53177;52.648;1.214;2022-11-18T13:54:38;6.53;;;2.15;;
66380;SDS011;53177;52.648;1.214;2022-11-18T13:57:03;9.52;;;2.75;;
66380;SDS011;53177;52.648;1.214;2022-11-18T13:59:29;9.20;;;2.57;;
66380;SDS011;53177;52.648;1.214;2022-11-18T14:01:58;5.50;;;2.00;;
66380;SDS011;53177;52.648;1.214;2022-11-18T14:04:28;6.97;;;2.03;;
66380;SDS011;53177;52.648;1.214;2022-11-18T14:07:14;8.03;;;2.57;;
66380;SDS011;53177;52.648;1.214;2022-11-18T14:10:04;4.90;;;2.00;;
66380;SDS011;53177;52.648;1.214;2022-11-18T14:12:33;6.63;;;2.10;;
66380;SDS011;53177;52.648;1.214;2022-11-18T14:15:13;6.70;;;1.70;;
66380;SDS011;53177;52.648;1.214;2022-11-18T14:18:00;5.45;;;1.75;;
66380;SDS011;53177;52.648;1.214;2022-11-18T14:20:27;6.27;;;1.57;;
66380;SDS011;53177;52.648;1.214;2022-11-18T14:22:55;6.82;;;1.75;;
66380;SDS011;53177;52.648;1.214;2022-11-18T14:25:32;6.57;;;1.90;;
66380;SDS011;53177;52.648;1.214;2022-11-18T14:36:49;5.45;;;1.80;;
66380;SDS011;53177;52.648;1.214;2022-11-18T14:39:21;5.45;;;1.60;;
66380;SDS011;53177;52.648;1.214;2022-11-18T14:41:49;8.18;;;1.80;;
66380;SDS011;53177;52.648;1.214;2022-11-18T14:44:15;5.93;;;1.70;;
66380;SDS011;53177;52.648;1.214;2022-11-18T14:46:42;7.80;;;1.60;;
66380;SDS011;53177;52.648;1.214;2022-11-18T14:49:20;7.30;;;1.63;;
66380;SDS011;53177;52.648;1.214;2022-11-18T14:51:47;5.95;;;1.90;;
66380;SDS011;53177;52.648;1.214;2022-11-18T14:54:14;5.65;;;1.55;;
66380;SDS011;53177;52.648;1.214;2022-11-18T14:56:40;4.43;;;1.70;;
66380;SDS011;53177;52.648;1.214;2022-11-18T14:59:09;6.78;;;2.20;;
66380;SDS011;53177;52.648;1.214;2022-11-18T15:01:36;5.63;;;1.75;;
66380;SDS011;53177;52.648;1.214;2022-11-18T15:04:01;4.57;;;1.53;;
66380;SDS011;53177;52.648;1.214;2022-11-18T15:06:27;4.77;;;1.70;;
66380;SDS011;53177;52.648;1.214;2022-11-18T15:08:52;6.15;;;1.77;;
66380;SDS011;53177;52.648;1.214;2022-11-18T15:11:18;5.32;;;1.77;;
66380;SDS011;53177;52.648;1.214;2022-11-18T15:13:43;7.07;;;2.10;;
66380;SDS011;53177;52.648;1.214;2022-11-18T15:18:49;5.25;;;1.83;;
66380;SDS011;53177;52.648;1.214;2022-11-18T15:21:17;7.60;;;1.80;;
66380;SDS011;53177;52.648;1.214;2022-11-18T15:23:43;5.30;;;1.90;;
66380;SDS011;53177;52.648;1.214;2022-11-18T15:26:19;5.90;;;1.80;;
66380;SDS011;53177;52.648;1.214;2022-11-18T15:28:45;6.82;;;2.00;;
66380;SDS011;53177;52.648;1.214;2022-11-18T15:31:11;5.38;;;1.80;;
66380;SDS011;53177;52.648;1.214;2022-11-18T15:33:37;5.63;;;2.23;;
66380;SDS011;53177;52.648;1.214;2022-11-18T15:36:08;5.32;;;1.88;;
66380;SDS011;53177;52.648;1.214;2022-11-18T15:38:36;5.35;;;1.90;;
66380;SDS011;53177;52.648;1.214;2022-11-18T15:41:02;6.77;;;1.90;;
66380;SDS011;53177;52.648;1.214;2022-11-18T15:43:27;5.77;;;2.00;;
66380;SDS011;53177;52.648;1.214;2022-11-18T15:45:56;5.25;;;1.90;;
66380;SDS011;53177;52.648;1.214;2022-11-18T15:48:22;5.70;;;1.90;;
66380;SDS011;53177;52.648;1.214;2022-11-18T15:50:47;6.28;;;2.20;;
66380;SDS011;53177;52.648;1.214;2022-11-18T15:53:13;7.30;;;2.00;;
66380;SDS011;53177;52.648;1.214;2022-11-18T15:55:38;7.03;;;2.17;;
66380;SDS011;53177;52.648;1.214;2022-11-18T15:58:04;6.43;;;2.00;;
66380;SDS011;53177;52.648;1.214;2022-11-18T16:00:30;5.10;;;2.08;;
66380;SDS011;53177;52.648;1.214;2022-11-18T16:02:57;6.20;;;1.98;;
66380;SDS011;53177;52.648;1.214;2022-11-18T16:05:22;7.10;;;2.33;;
66380;SDS011;53177;52.648;1.214;2022-11-18T16:07:48;8.73;;;2.80;;
66380;SDS011;53177;52.648;1.214;2022-11-18T16:10:14;6.67;;;2.40;;
66380;SDS011;53177;52.648;1.214;2022-11-18T16:12:58;7.15;;;2.65;;
66380;SDS011;53177;52.648;1.214;2022-11-18T16:15:24;7.57;;;2.80;;
66380;SDS011;53177;52.648;1.214;2022-11-18T16:18:07;10.38;;;3.58;;
66380;SDS011;53177;52.648;1.214;2022-11-18T16:20:34;8.13;;;3.17;;
66380;SDS011;53177;52.648;1.214;2022-11-18T16:22:59;8.63;;;4.47;;
66380;SDS011;53177;52.648;1.214;2022-11-18T16:25:25;9.40;;;3.93;;
66380;SDS011;53177;52.648;1.214;2022-11-18T16:27:51;9.25;;;3.85;;
66380;SDS011;53177;52.648;1.214;2022-11-18T16:30:17;14.07;;;7.17;;
66380;SDS011;53177;52.648;1.214;2022-11-18T16:33:01;14.85;;;7.28;;
66380;SDS011;53177;52.648;1.214;2022-11-18T16:35:27;12.20;;;6.00;;
66380;SDS011;53177;52.648;1.214;2022-11-18T16:37:52;9.40;;;4.33;;
66380;SDS011;53177;52.648;1.214;2022-11-18T16:40:18;10.13;;;4.07;;
66380;SDS011;53177;52.648;1.214;2022-11-18T16:42:49;11.98;;;6.60;;
66380;SDS011;53177;52.648;1.214;2022-11-18T16:45:15;12.30;;;5.68;;
66380;SDS011;53177;52.648;1.214;2022-11-18T16:47:41;9.63;;;5.43;;
66380;SDS011;53177;52.648;1.214;2022-11-18T16:50:07;11.43;;;5.10;;
66380;SDS011;53177;52.648;1.214;2022-11-18T16:52:32;9.85;;;3.85;;
66380;SDS011;53177;52.648;1.214;2022-11-18T16:54:58;7.90;;;3.05;;
66380;SDS011;53177;52.648;1.214;2022-11-18T16:57:23;7.17;;;3.20;;